Time;durP1;ratioP1;P1;durP2;ratioP2;P2;SDS_P1;SDS_P2;PMS_P1;PMS_P2;Temp;Humidity;BMP_temperature;BMP_pressure;BME280_temperature;BME280_humidity;BME280_pressure;Samples;Min_cycle;Max_cycle;Signal;HPM_P1;HPM_P2
2021/08/28 00:00:08;;;;;;;27.38;15.75;;;;;;;;;;5058380;28;20065;-62
2021/08/28 00:02:54;;;;;;;41.97;17.38;;;;;;;;;;5057729;28;20506;-62
2021/08/28 00:05:21;;;;;;;32.90;17.23;;;;;;;;;;5057219;28;20490;-62
2021/08/28 00:07:47;;;;;;;31.88;17.02;;;;;;;;;;5057009;28;20060;-62
2021/08/28 00:10:13;;;;;;;31.98;16.50;;;;;;;;;;5053880;28;20166;-62
2021/08/28 00:12:40;;;;;;;33.38;17.08;;;;;;;;;;5067890;28;20090;-62
2021/08/28 00:15:07;;;;;;;27.42;14.82;;;;;;;;;;5058427;28;20083;-62
2021/08/28 00:17:34;;;;;;;28.15;15.75;;;;;;;;;;5057388;28;20576;-62
2021/08/28 00:20:02;;;;;;;31.70;15.38;;;;;;;;;;5057517;28;20162;-62
2021/08/28 00:22:28;;;;;;;29.00;14.65;;;;;;;;;;5054795;28;20414;-62
2021/08/28 00:24:55;;;;;;;28.15;14.98;;;;;;;;;;5055021;28;20041;-62
2021/08/28 00:27:21;;;;;;;26.20;16.08;;;;;;;;;;5057213;28;20072;-62
2021/08/28 00:29:49;;;;;;;25.13;14.82;;;;;;;;;;5056452;28;20052;-62
2021/08/28 00:32:15;;;;;;;26.95;15.30;;;;;;;;;;5054126;28;20060;-62
2021/08/28 00:34:42;;;;;;;30.52;15.48;;;;;;;;;;5068976;28;20076;-62
2021/08/28 00:37:08;;;;;;;30.23;16.52;;;;;;;;;;5052696;28;20079;-62
2021/08/28 00:39:34;;;;;;;27.13;14.52;;;;;;;;;;5055609;28;20053;-62
2021/08/28 00:42:01;;;;;;;32.70;16.33;;;;;;;;;;5056303;28;20620;-62
2021/08/28 00:44:27;;;;;;;32.20;16.95;;;;;;;;;;5056401;28;20127;-62
2021/08/28 00:46:55;;;;;;;41.67;16.92;;;;;;;;;;5052082;28;20479;-62
2021/08/28 00:49:22;;;;;;;31.00;16.27;;;;;;;;;;5067850;28;20064;-62
2021/08/28 00:51:48;;;;;;;32.92;16.70;;;;;;;;;;5054682;28;20131;-62
2021/08/28 00:54:14;;;;;;;26.55;15.30;;;;;;;;;;5065632;28;20055;-62
2021/08/28 00:56:41;;;;;;;26.45;14.70;;;;;;;;;;5062430;28;20094;-62
2021/08/28 00:59:07;;;;;;;27.48;15.38;;;;;;;;;;5056481;28;20123;-62
2021/08/28 01:01:37;;;;;;;23.63;14.23;;;;;;;;;;5054594;28;20151;-62
2021/08/28 01:04:06;;;;;;;26.85;14.93;;;;;;;;;;5068821;28;20064;-62
2021/08/28 01:06:39;;;;;;;24.42;14.73;;;;;;;;;;5055033;28;20120;-62
2021/08/28 01:09:23;;;;;;;27.42;15.73;;;;;;;;;;5052404;28;20503;-62
2021/08/28 01:12:05;;;;;;;28.90;15.68;;;;;;;;;;5055575;28;20064;-62
2021/08/28 01:14:35;;;;;;;30.40;15.57;;;;;;;;;;5058782;28;20087;-62
2021/08/28 01:17:06;;;;;;;23.58;13.88;;;;;;;;;;5058577;28;20048;-62
2021/08/28 01:19:35;;;;;;;29.65;16.23;;;;;;;;;;5054676;28;20055;-62
2021/08/28 01:22:14;;;;;;;24.58;14.00;;;;;;;;;;5053222;28;20080;-62
2021/08/28 01:24:48;;;;;;;24.70;13.60;;;;;;;;;;5070881;28;20068;-61
2021/08/28 01:27:32;;;;;;;21.20;13.40;;;;;;;;;;5068762;28;20067;-62
2021/08/28 01:29:59;;;;;;;21.05;13.63;;;;;;;;;;5060407;28;20080;-62
2021/08/28 01:32:26;;;;;;;26.83;15.05;;;;;;;;;;5056221;28;20126;-62
2021/08/28 01:34:54;;;;;;;24.65;14.18;;;;;;;;;;5067891;28;20048;-62
2021/08/28 01:37:20;;;;;;;23.65;13.57;;;;;;;;;;5052624;28;20093;-62
2021/08/28 01:40:00;;;;;;;25.20;14.15;;;;;;;;;;5053305;28;20112;-62
2021/08/28 01:42:33;;;;;;;27.83;13.60;;;;;;;;;;5056631;28;20102;-62
2021/08/28 01:45:02;;;;;;;29.95;14.85;;;;;;;;;;5058220;28;20142;-62
2021/08/28 01:47:30;;;;;;;25.17;13.80;;;;;;;;;;5056448;28;20052;-62
2021/08/28 01:49:58;;;;;;;34.90;15.50;;;;;;;;;;5062203;28;20037;-62
2021/08/28 01:52:25;;;;;;;25.90;14.48;;;;;;;;;;5067601;28;20053;-62
2021/08/28 01:54:53;;;;;;;29.23;14.45;;;;;;;;;;5052766;28;20045;-62
2021/08/28 01:57:20;;;;;;;24.35;14.68;;;;;;;;;;5097918;28;20102;-62
2021/08/28 02:00:11;;;;;;;25.77;13.95;;;;;;;;;;5062911;28;20079;-62
2021/08/28 02:02:42;;;;;;;33.80;15.68;;;;;;;;;;5065360;28;20414;-62
2021/08/28 02:05:10;;;;;;;26.08;15.75;;;;;;;;;;5069096;28;20067;-62
2021/08/28 02:07:42;;;;;;;24.15;15.90;;;;;;;;;;5056321;28;20083;-62
2021/08/28 02:10:08;;;;;;;22.13;13.80;;;;;;;;;;5054305;28;20408;-62
2021/08/28 02:12:36;;;;;;;26.00;15.10;;;;;;;;;;5068292;28;20051;-62
2021/08/28 02:15:21;;;;;;;29.50;14.98;;;;;;;;;;5066467;28;20399;-62
2021/08/28 02:17:56;;;;;;;22.02;13.90;;;;;;;;;;5059287;28;20059;-62
2021/08/28 02:20:27;;;;;;;20.88;12.88;;;;;;;;;;5057309;28;20037;-62
2021/08/28 02:23:00;;;;;;;24.63;14.52;;;;;;;;;;5059366;28;20052;-62
2021/08/28 02:25:31;;;;;;;22.08;13.85;;;;;;;;;;5055700;28;20142;-62
2021/08/28 02:28:03;;;;;;;24.95;13.15;;;;;;;;;;5055972;28;20052;-62
2021/08/28 02:30:31;;;;;;;23.88;13.45;;;;;;;;;;5060103;28;20494;-62
2021/08/28 02:33:27;;;;;;;24.30;13.63;;;;;;;;;;5067324;28;20076;-62
2021/08/28 02:35:57;;;;;;;27.98;13.40;;;;;;;;;;5062142;28;20052;-62
2021/08/28 02:38:25;;;;;;;24.17;14.23;;;;;;;;;;5061366;28;20075;-62
2021/08/28 02:40:52;;;;;;;25.05;13.25;;;;;;;;;;5060698;28;20072;-62
2021/08/28 02:43:21;;;;;;;23.45;14.20;;;;;;;;;;5054521;28;20051;-62
2021/08/28 02:45:50;;;;;;;22.35;12.77;;;;;;;;;;5056706;28;20049;-62
2021/08/28 02:48:21;;;;;;;18.63;12.52;;;;;;;;;;5067525;28;20506;-62
2021/08/28 02:50:47;;;;;;;27.40;13.18;;;;;;;;;;5091588;28;20041;-62
2021/08/28 02:53:17;;;;;;;19.67;13.60;;;;;;;;;;5060624;28;20071;-62
2021/08/28 02:55:48;;;;;;;24.73;13.70;;;;;;;;;;5060806;28;20139;-62
2021/08/28 02:58:14;;;;;;;21.65;13.30;;;;;;;;;;5057293;28;20041;-62
2021/08/28 03:00:44;;;;;;;22.40;13.70;;;;;;;;;;5068746;28;20044;-62
2021/08/28 03:03:13;;;;;;;21.52;13.85;;;;;;;;;;5065025;28;20453;-62
2021/08/28 03:05:41;;;;;;;22.77;12.35;;;;;;;;;;5064520;28;20080;-62
2021/08/28 03:08:08;;;;;;;20.52;12.50;;;;;;;;;;5068808;28;20103;-62
2021/08/28 03:10:35;;;;;;;24.20;13.38;;;;;;;;;;5056608;28;20199;-62
2021/08/28 03:13:02;;;;;;;24.17;14.43;;;;;;;;;;5053920;28;20089;-62
2021/08/28 03:15:28;;;;;;;26.60;14.23;;;;;;;;;;5062083;28;20044;-62
2021/08/28 03:18:24;;;;;;;26.48;14.68;;;;;;;;;;5062732;28;20048;-62
2021/08/28 03:20:53;;;;;;;24.25;14.90;;;;;;;;;;5066913;28;20048;-62
2021/08/28 03:23:21;;;;;;;28.75;14.77;;;;;;;;;;5064432;28;20132;-62
2021/08/28 03:25:49;;;;;;;27.75;16.23;;;;;;;;;;5064680;28;20060;-62
2021/08/28 03:28:19;;;;;;;28.25;15.90;;;;;;;;;;5069960;28;20060;-62
2021/08/28 03:30:47;;;;;;;28.75;16.92;;;;;;;;;;5069123;28;20510;-62
2021/08/28 03:33:15;;;;;;;28.13;16.27;;;;;;;;;;5064861;28;20049;-62
2021/08/28 03:35:43;;;;;;;27.73;16.13;;;;;;;;;;5064297;28;20051;-63
2021/08/28 03:38:10;;;;;;;30.65;16.38;;;;;;;;;;5064072;28;20177;-62
2021/08/28 03:40:38;;;;;;;27.55;15.88;;;;;;;;;;5070237;28;20091;-62
2021/08/28 03:43:05;;;;;;;27.98;16.73;;;;;;;;;;5055684;28;20053;-62
2021/08/28 03:45:32;;;;;;;36.90;17.42;;;;;;;;;;5058050;28;20071;-63
2021/08/28 03:47:58;;;;;;;37.45;18.77;;;;;;;;;;5059993;28;20064;-61
2021/08/28 03:50:25;;;;;;;34.08;19.23;;;;;;;;;;5059914;28;20403;-62
2021/08/28 03:52:58;;;;;;;46.65;19.48;;;;;;;;;;5059718;28;20123;-62
2021/08/28 03:55:25;;;;;;;50.17;19.88;;;;;;;;;;5053438;28;20048;-62
2021/08/28 03:57:51;;;;;;;60.63;22.35;;;;;;;;;;5056704;28;20056;-62
2021/08/28 04:00:18;;;;;;;48.75;21.65;;;;;;;;;;5058518;28;21184;-62
2021/08/28 04:02:49;;;;;;;52.13;21.83;;;;;;;;;;5060693;28;20079;-62
2021/08/28 04:05:19;;;;;;;44.78;21.08;;;;;;;;;;5064348;28;20117;-62
2021/08/28 04:07:46;;;;;;;46.95;21.17;;;;;;;;;;5070652;28;20418;-62
2021/08/28 04:10:13;;;;;;;48.50;23.02;;;;;;;;;;5052794;28;20124;-62
2021/08/28 04:12:39;;;;;;;44.58;19.10;;;;;;;;;;5056439;28;20069;-61
2021/08/28 04:15:08;;;;;;;42.83;21.35;;;;;;;;;;5059421;28;20415;-62
2021/08/28 04:17:53;;;;;;;43.60;20.95;;;;;;;;;;5058672;28;20057;-62
2021/08/28 04:20:19;;;;;;;52.38;21.95;;;;;;;;;;5060415;28;20048;-62
2021/08/28 04:22:45;;;;;;;46.60;22.70;;;;;;;;;;5060011;28;20056;-62
2021/08/28 04:25:12;;;;;;;61.00;21.50;;;;;;;;;;5069268;28;20118;-62
2021/08/28 04:28:03;;;;;;;61.90;20.88;;;;;;;;;;5062514;28;20479;-62
2021/08/28 04:30:34;;;;;;;95.57;23.45;;;;;;;;;;5055861;28;20053;-62
2021/08/28 04:33:02;;;;;;;95.53;23.55;;;;;;;;;;5056926;28;20072;-62
2021/08/28 04:35:28;;;;;;;83.75;21.35;;;;;;;;;;5056555;28;20079;-62
2021/08/28 04:37:55;;;;;;;71.38;21.02;;;;;;;;;;5069884;28;20497;-62
2021/08/28 04:40:22;;;;;;;65.28;22.15;;;;;;;;;;5052626;28;20040;-62
2021/08/28 04:42:48;;;;;;;51.83;20.00;;;;;;;;;;5055267;28;20049;-62
2021/08/28 04:45:21;;;;;;;60.65;21.52;;;;;;;;;;5066917;28;20087;-62
2021/08/28 04:48:10;;;;;;;44.72;21.25;;;;;;;;;;5063561;28;20090;-62
2021/08/28 04:50:39;;;;;;;42.78;20.55;;;;;;;;;;5063156;28;20083;-62
2021/08/28 04:53:06;;;;;;;46.28;20.42;;;;;;;;;;5064812;28;20049;-62
2021/08/28 04:55:32;;;;;;;43.70;22.70;;;;;;;;;;5038275;28;20105;-61
2021/08/28 04:57:59;;;;;;;52.40;22.05;;;;;;;;;;5067411;28;20044;-62
2021/08/28 05:00:25;;;;;;;48.83;22.13;;;;;;;;;;5064250;28;20054;-62
2021/08/28 05:03:25;;;;;;;44.83;20.50;;;;;;;;;;5066878;28;20071;-62
2021/08/28 05:05:54;;;;;;;41.08;20.48;;;;;;;;;;5063158;28;20052;-62
2021/08/28 05:08:21;;;;;;;42.08;21.60;;;;;;;;;;5065901;28;20045;-62
2021/08/28 05:10:49;;;;;;;39.88;20.35;;;;;;;;;;5058110;28;20459;-62
2021/08/28 05:13:15;;;;;;;37.90;20.98;;;;;;;;;;5051725;28;20509;-62
2021/08/28 05:15:43;;;;;;;33.65;17.98;;;;;;;;;;5066325;28;20045;-62
2021/08/28 05:18:10;;;;;;;42.30;19.45;;;;;;;;;;5063156;28;20079;-62
2021/08/28 05:20:36;;;;;;;37.67;19.05;;;;;;;;;;5057289;28;20060;-62
2021/08/28 05:23:21;;;;;;;35.47;18.58;;;;;;;;;;5056922;28;20513;-62
2021/08/28 05:25:56;;;;;;;30.40;16.67;;;;;;;;;;5062825;28;20048;-62
2021/08/28 05:28:24;;;;;;;29.13;16.88;;;;;;;;;;5067129;28;20457;-62
2021/08/28 05:30:50;;;;;;;33.78;18.27;;;;;;;;;;5067762;28;20045;-62
2021/08/28 05:33:19;;;;;;;32.10;16.40;;;;;;;;;;5068618;28;20060;-61
2021/08/28 05:35:45;;;;;;;29.73;15.82;;;;;;;;;;5057163;28;20076;-61
2021/08/28 05:38:44;;;;;;;30.35;15.75;;;;;;;;;;5036995;28;20037;-62
2021/08/28 05:41:10;;;;;;;27.77;15.60;;;;;;;;;;5034125;28;20529;-62
2021/08/28 05:43:37;;;;;;;28.92;17.00;;;;;;;;;;5034045;28;20540;-62
2021/08/28 05:46:05;;;;;;;26.13;15.13;;;;;;;;;;5049549;28;20041;-62
2021/08/28 05:48:42;;;;;;;30.90;15.80;;;;;;;;;;5035098;28;20076;-63
2021/08/28 05:51:28;;;;;;;23.65;15.38;;;;;;;;;;5049543;28;20064;-62
2021/08/28 05:53:55;;;;;;;28.27;16.25;;;;;;;;;;5044758;28;20121;-63
2021/08/28 05:56:21;;;;;;;21.67;13.32;;;;;;;;;;5047492;28;20083;-63
2021/08/28 05:58:48;;;;;;;24.40;14.45;;;;;;;;;;5049845;28;20063;-63
2021/08/28 06:01:15;;;;;;;22.42;13.05;;;;;;;;;;5034768;28;20072;-61
2021/08/28 06:03:41;;;;;;;21.92;13.38;;;;;;;;;;5036201;28;20056;-62
2021/08/28 06:06:19;;;;;;;25.60;14.45;;;;;;;;;;5032986;28;20080;-62
2021/08/28 06:09:18;;;;;;;22.25;14.15;;;;;;;;;;5011446;28;20111;-64
2021/08/28 06:12:02;;;;;;;;;;;;;;;;;;5011029;28;20096;-62
2021/08/28 06:14:57;;;;;;;28.20;14.55;;;;;;;;;;5002036;28;19925;-62
2021/08/28 06:17:42;;;;;;;23.77;13.17;;;;;;;;;;5001238;28;20093;-62
2021/08/28 06:20:09;;;;;;;22.15;13.02;;;;;;;;;;5011916;28;20068;-62
2021/08/28 06:22:35;;;;;;;20.30;13.25;;;;;;;;;;5011813;28;20549;-62
2021/08/28 06:25:02;;;;;;;18.55;12.95;;;;;;;;;;5006900;28;20511;-62
2021/08/28 06:27:28;;;;;;;22.02;13.32;;;;;;;;;;5007668;28;20053;-63
2021/08/28 06:29:55;;;;;;;20.95;13.45;;;;;;;;;;5012285;28;20073;-62
2021/08/28 06:32:21;;;;;;;19.27;12.43;;;;;;;;;;5009465;28;20073;-62
2021/08/28 06:34:48;;;;;;;26.45;13.25;;;;;;;;;;4998140;28;20474;-62
2021/08/28 06:37:19;;;;;;;18.63;12.95;;;;;;;;;;5008493;28;20165;-62
2021/08/28 06:40:04;;;;;;;19.77;12.95;;;;;;;;;;5016126;28;20124;-63
2021/08/28 06:43:02;;;;;;;19.40;13.13;;;;;;;;;;5018512;28;20508;-62
2021/08/28 06:45:47;;;;;;;20.23;13.00;;;;;;;;;;5062309;28;20080;-62
2021/08/28 06:48:32;;;;;;;18.40;11.45;;;;;;;;;;5060909;28;20466;-61
2021/08/28 06:51:31;;;;;;;19.77;12.63;;;;;;;;;;5067024;28;20080;-62
2021/08/28 06:54:16;;;;;;;;;;;;;;;;;;5064912;28;20449;-63
2021/08/28 06:57:01;;;;;;;23.23;13.40;;;;;;;;;;5059979;28;19963;-62
2021/08/28 06:59:46;;;;;;;21.42;12.32;;;;;;;;;;5064356;28;20049;-62
2021/08/28 07:02:44;;;;;;;18.52;12.45;;;;;;;;;;5009849;28;20547;-62
2021/08/28 07:05:12;;;;;;;19.40;12.98;;;;;;;;;;4991467;28;20128;-63
2021/08/28 07:07:49;;;;;;;17.75;11.57;;;;;;;;;;4992415;28;20115;-62
2021/08/28 07:10:16;;;;;;;15.30;10.85;;;;;;;;;;5010279;28;20536;-63
2021/08/28 07:12:43;;;;;;;18.65;12.18;;;;;;;;;;4989895;28;20072;-63
2021/08/28 07:15:11;;;;;;;18.77;11.70;;;;;;;;;;4991409;28;20077;-63
2021/08/28 07:17:48;;;;;;;17.65;11.95;;;;;;;;;;4990706;28;20054;-63
2021/08/28 07:20:14;;;;;;;19.60;12.15;;;;;;;;;;5009484;28;20054;-62
2021/08/28 07:22:41;;;;;;;18.13;12.48;;;;;;;;;;5009469;28;20081;-62
2021/08/28 07:25:21;;;;;;;16.08;11.52;;;;;;;;;;4992625;28;20077;-63
2021/08/28 07:27:47;;;;;;;20.55;12.00;;;;;;;;;;5009578;28;20216;-63
2021/08/28 07:30:42;;;;;;;19.23;11.27;;;;;;;;;;4989051;28;20078;-62
2021/08/28 07:33:09;;;;;;;19.80;11.93;;;;;;;;;;4972735;28;20050;-63
2021/08/28 07:35:35;;;;;;;16.13;11.77;;;;;;;;;;4976959;28;20563;-62
2021/08/28 07:38:02;;;;;;;17.58;11.25;;;;;;;;;;4987983;28;20088;-63
2021/08/28 07:40:29;;;;;;;17.05;11.15;;;;;;;;;;5013223;28;20037;-63
2021/08/28 07:42:56;;;;;;;16.33;10.90;;;;;;;;;;5013338;28;20108;-62
2021/08/28 07:45:24;;;;;;;15.50;10.90;;;;;;;;;;5010602;28;20068;-63
2021/08/28 07:48:10;;;;;;;15.85;10.30;;;;;;;;;;5024987;28;20095;-63
2021/08/28 07:50:37;;;;;;;15.00;9.98;;;;;;;;;;5009310;28;20069;-62
2021/08/28 07:53:03;;;;;;;16.85;11.20;;;;;;;;;;5011402;28;20046;-62
2021/08/28 07:55:33;;;;;;;20.15;12.18;;;;;;;;;;5011972;28;20057;-63
2021/08/28 07:58:00;;;;;;;15.90;9.80;;;;;;;;;;5010454;28;20082;-63
2021/08/28 08:00:26;;;;;;;17.42;11.02;;;;;;;;;;5011900;28;20064;-63
2021/08/28 08:02:52;;;;;;;14.43;9.35;;;;;;;;;;5012198;28;20050;-63
2021/08/28 08:05:37;;;;;;;14.13;9.82;;;;;;;;;;5027273;28;20108;-63
2021/08/28 08:08:27;;;;;;;15.10;10.00;;;;;;;;;;5052701;28;20465;-63
2021/08/28 08:11:16;;;;;;;14.57;9.07;;;;;;;;;;5057756;28;20048;-63
2021/08/28 08:14:01;;;;;;;15.85;9.80;;;;;;;;;;5057258;28;20040;-63
2021/08/28 08:16:54;;;;;;;14.82;9.23;;;;;;;;;;5038108;28;20081;-62
2021/08/28 08:19:36;;;;;;;10.57;8.25;;;;;;;;;;5030396;28;20049;-62
2021/08/28 08:22:21;;;;;;;12.25;8.80;;;;;;;;;;5049389;28;20073;-63
2021/08/28 08:24:55;;;;;;;;;;;;;;;;;;5033820;28;20045;-62
2021/08/28 08:27:42;;;;;;;11.05;7.95;;;;;;;;;;4990636;28;19971;-62
2021/08/28 08:30:21;;;;;;;8.45;6.65;;;;;;;;;;4990562;28;20066;-62
2021/08/28 08:32:52;;;;;;;10.50;7.53;;;;;;;;;;4990444;28;20088;-62
2021/08/28 08:35:22;;;;;;;9.45;7.38;;;;;;;;;;4989952;28;20074;-63
2021/08/28 08:37:49;;;;;;;10.07;7.10;;;;;;;;;;4971223;28;20046;-63
2021/08/28 08:40:16;;;;;;;7.80;6.38;;;;;;;;;;4973907;28;20437;-63
2021/08/28 08:42:47;;;;;;;9.40;5.75;;;;;;;;;;4991011;28;20198;-63
2021/08/28 08:45:17;;;;;;;9.65;7.05;;;;;;;;;;4970262;28;20561;-63
2021/08/28 08:47:43;;;;;;;6.90;5.78;;;;;;;;;;4989809;28;20054;-64
2021/08/28 08:50:10;;;;;;;11.93;6.80;;;;;;;;;;4971069;28;20513;-63
2021/08/28 08:52:47;;;;;;;7.80;5.55;;;;;;;;;;4994227;28;20078;-62
2021/08/28 08:55:25;;;;;;;10.85;7.55;;;;;;;;;;5010548;28;20060;-62
2021/08/28 08:57:53;;;;;;;8.88;5.85;;;;;;;;;;5016227;28;20088;-63
2021/08/28 09:00:20;;;;;;;8.65;6.35;;;;;;;;;;5011157;28;20053;-62
2021/08/28 09:03:07;;;;;;;7.35;5.90;;;;;;;;;;5026230;28;20092;-63
2021/08/28 09:05:36;;;;;;;7.07;5.35;;;;;;;;;;5051293;28;20490;-63
2021/08/28 09:08:02;;;;;;;7.78;5.07;;;;;;;;;;5068432;28;20063;-62
2021/08/28 09:10:29;;;;;;;7.85;4.97;;;;;;;;;;5053409;28;20103;-63
2021/08/28 09:12:55;;;;;;;7.18;4.95;;;;;;;;;;5057576;28;20048;-63
2021/08/28 09:15:21;;;;;;;12.02;5.32;;;;;;;;;;5061771;28;20498;-62
2021/08/28 09:17:58;;;;;;;8.48;4.68;;;;;;;;;;5065503;28;20091;-63
2021/08/28 09:20:25;;;;;;;7.65;4.72;;;;;;;;;;5067982;28;20402;-63
2021/08/28 09:23:03;;;;;;;8.77;4.55;;;;;;;;;;5060701;28;20060;-63
2021/08/28 09:25:29;;;;;;;8.65;4.82;;;;;;;;;;5057594;28;20051;-63
2021/08/28 09:27:55;;;;;;;8.73;5.38;;;;;;;;;;5058839;28;20493;-63
2021/08/28 09:30:22;;;;;;;8.63;6.03;;;;;;;;;;5061429;28;20049;-63
2021/08/28 09:32:52;;;;;;;9.00;5.05;;;;;;;;;;5060399;28;20041;-63
2021/08/28 09:35:20;;;;;;;8.95;5.50;;;;;;;;;;5060568;28;20064;-63
2021/08/28 09:38:13;;;;;;;6.03;4.68;;;;;;;;;;5059619;28;20037;-62
2021/08/28 09:40:40;;;;;;;7.18;4.78;;;;;;;;;;5057321;28;20077;-62
2021/08/28 09:43:18;;;;;;;6.88;4.75;;;;;;;;;;5057697;28;20566;-63
2021/08/28 09:45:46;;;;;;;7.22;5.18;;;;;;;;;;5059991;28;20123;-62
2021/08/28 09:48:14;;;;;;;12.02;5.47;;;;;;;;;;5060317;28;20115;-62
2021/08/28 09:50:41;;;;;;;8.02;4.72;;;;;;;;;;5060173;28;20044;-62
2021/08/28 09:53:09;;;;;;;6.40;4.85;;;;;;;;;;5060768;28;20076;-63
2021/08/28 09:55:36;;;;;;;10.63;6.68;;;;;;;;;;5058717;28;20131;-63
2021/08/28 09:58:03;;;;;;;7.43;4.35;;;;;;;;;;5068823;28;20553;-62
2021/08/28 10:00:31;;;;;;;7.45;4.90;;;;;;;;;;5062336;28;20048;-63
2021/08/28 10:03:07;;;;;;;7.28;4.53;;;;;;;;;;5063503;28;20050;-62
2021/08/28 10:05:37;;;;;;;5.28;4.13;;;;;;;;;;5058644;28;20072;-62
2021/08/28 10:08:05;;;;;;;6.78;4.40;;;;;;;;;;5064441;28;20094;-60
2021/08/28 10:10:33;;;;;;;6.00;4.40;;;;;;;;;;5061485;28;20052;-58
2021/08/28 10:13:00;;;;;;;5.53;4.18;;;;;;;;;;5058713;28;20060;-62
2021/08/28 10:15:27;;;;;;;6.75;4.05;;;;;;;;;;5067268;28;20055;-62
2021/08/28 10:17:56;;;;;;;5.35;4.20;;;;;;;;;;5064259;28;20067;-62
2021/08/28 10:20:23;;;;;;;6.45;4.93;;;;;;;;;;5065851;28;20068;-61
2021/08/28 10:22:52;;;;;;;8.32;4.80;;;;;;;;;;5068046;28;20048;-59
2021/08/28 10:25:20;;;;;;;7.00;4.78;;;;;;;;;;5064806;28;20580;-59
2021/08/28 10:27:48;;;;;;;6.55;4.70;;;;;;;;;;5068275;28;20052;-61
2021/08/28 10:30:14;;;;;;;8.02;4.78;;;;;;;;;;5063868;28;20044;-62
2021/08/28 10:32:41;;;;;;;5.35;4.05;;;;;;;;;;5067829;28;20383;-62
2021/08/28 10:35:08;;;;;;;7.47;4.50;;;;;;;;;;5068632;28;20049;-62
2021/08/28 10:37:35;;;;;;;7.22;5.15;;;;;;;;;;5067124;28;20049;-62
2021/08/28 10:40:02;;;;;;;6.70;4.70;;;;;;;;;;5061085;28;20095;-61
2021/08/28 10:42:32;;;;;;;5.53;4.53;;;;;;;;;;5066319;28;20129;-61
2021/08/28 10:44:59;;;;;;;8.43;4.57;;;;;;;;;;5063970;28;20502;-61
2021/08/28 10:47:29;;;;;;;7.38;4.78;;;;;;;;;;5062655;28;20132;-63
2021/08/28 10:50:07;;;;;;;5.55;4.05;;;;;;;;;;5070530;28;20068;-61
2021/08/28 10:52:34;;;;;;;6.20;4.07;;;;;;;;;;5065685;28;20049;-61
2021/08/28 10:55:06;;;;;;;7.07;5.18;;;;;;;;;;5058044;28;20060;-61
2021/08/28 10:57:32;;;;;;;5.57;4.07;;;;;;;;;;5061911;28;20068;-61
2021/08/28 11:00:04;;;;;;;7.95;3.95;;;;;;;;;;5061661;28;20075;-61
2021/08/28 11:02:51;;;;;;;6.85;4.10;;;;;;;;;;5057346;28;20139;-62
2021/08/28 11:05:19;;;;;;;6.15;4.43;;;;;;;;;;5057815;28;20121;-60
2021/08/28 11:07:46;;;;;;;7.10;4.85;;;;;;;;;;5061801;28;20052;-63
2021/08/28 11:10:15;;;;;;;5.45;4.32;;;;;;;;;;5067059;28;20053;-61
2021/08/28 11:12:46;;;;;;;6.60;4.68;;;;;;;;;;5067629;28;20491;-61
2021/08/28 11:15:24;;;;;;;6.18;4.20;;;;;;;;;;5064240;28;20044;-61
2021/08/28 11:18:14;;;;;;;7.07;4.50;;;;;;;;;;5061580;28;20061;-62
2021/08/28 11:20:44;;;;;;;6.70;4.07;;;;;;;;;;5061084;28;20044;-63
2021/08/28 11:23:13;;;;;;;4.65;3.25;;;;;;;;;;5066021;28;20124;-61
2021/08/28 11:25:41;;;;;;;9.95;4.03;;;;;;;;;;5054687;28;20509;-62
2021/08/28 11:28:08;;;;;;;6.78;3.70;;;;;;;;;;5066463;28;20037;-61
2021/08/28 11:30:46;;;;;;;6.15;3.72;;;;;;;;;;5065479;28;20080;-63
2021/08/28 11:33:32;;;;;;;5.10;3.90;;;;;;;;;;5069877;28;20052;-63
2021/08/28 11:35:58;;;;;;;6.15;4.18;;;;;;;;;;5060564;28;20170;-63
2021/08/28 11:38:34;;;;;;;9.73;4.45;;;;;;;;;;5064499;28;20406;-62
2021/08/28 11:41:01;;;;;;;6.65;3.80;;;;;;;;;;5066967;28;20093;-63
2021/08/28 11:43:34;;;;;;;4.75;3.30;;;;;;;;;;5052428;28;20435;-63
2021/08/28 11:46:02;;;;;;;9.57;3.60;;;;;;;;;;5053554;28;20052;-63
2021/08/28 11:48:29;;;;;;;4.57;3.13;;;;;;;;;;5056219;28;20506;-63
2021/08/28 11:50:56;;;;;;;4.22;3.63;;;;;;;;;;5056127;28;20553;-62
2021/08/28 11:53:29;;;;;;;4.90;3.50;;;;;;;;;;5057342;28;20048;-63
2021/08/28 11:56:08;;;;;;;4.70;3.35;;;;;;;;;;5068290;28;20131;-62
2021/08/28 11:58:47;;;;;;;5.03;3.03;;;;;;;;;;5055527;28;20049;-63
2021/08/28 12:01:27;;;;;;;8.55;3.85;;;;;;;;;;5054459;28;20491;-63
2021/08/28 12:03:53;;;;;;;8.70;4.18;;;;;;;;;;5069602;28;20094;-62
2021/08/28 12:06:23;;;;;;;4.95;2.70;;;;;;;;;;5058569;28;20091;-62
2021/08/28 12:08:49;;;;;;;4.63;2.80;;;;;;;;;;5058267;28;20045;-63
2021/08/28 12:11:16;;;;;;;7.00;3.40;;;;;;;;;;5058129;28;20047;-62
2021/08/28 12:13:49;;;;;;;7.15;4.10;;;;;;;;;;5056489;28;20565;-63
2021/08/28 12:16:19;;;;;;;4.93;2.90;;;;;;;;;;5053893;28;20048;-63
2021/08/28 12:18:46;;;;;;;3.30;2.20;;;;;;;;;;5057600;28;20087;-63
2021/08/28 12:21:13;;;;;;;7.93;3.70;;;;;;;;;;5057546;28;20049;-63
2021/08/28 12:23:39;;;;;;;3.40;2.65;;;;;;;;;;5057881;28;20052;-60
2021/08/28 12:26:18;;;;;;;3.33;2.53;;;;;;;;;;5057833;28;20072;-63
2021/08/28 12:28:45;;;;;;;2.88;2.15;;;;;;;;;;5056749;28;20509;-63
2021/08/28 12:31:12;;;;;;;2.80;2.15;;;;;;;;;;5054480;28;20096;-63
2021/08/28 12:33:38;;;;;;;3.95;2.45;;;;;;;;;;5068322;28;20049;-63
2021/08/28 12:36:04;;;;;;;3.50;2.67;;;;;;;;;;5059382;28;20487;-63
2021/08/28 12:38:31;;;;;;;5.53;3.03;;;;;;;;;;5057650;28;20126;-60
2021/08/28 12:40:58;;;;;;;3.33;2.60;;;;;;;;;;5057338;28;20379;-63
2021/08/28 12:43:26;;;;;;;4.35;2.65;;;;;;;;;;5053977;28;20097;-62
2021/08/28 12:45:56;;;;;;;4.65;2.85;;;;;;;;;;5055916;28;20523;-63
2021/08/28 12:48:22;;;;;;;7.97;3.10;;;;;;;;;;5057931;28;20072;-63
2021/08/28 12:50:48;;;;;;;5.47;3.40;;;;;;;;;;5057291;28;20557;-63
2021/08/28 12:53:15;;;;;;;5.25;3.55;;;;;;;;;;5057325;28;20128;-62
2021/08/28 12:55:41;;;;;;;4.88;3.10;;;;;;;;;;5056054;28;20056;-63
2021/08/28 12:58:09;;;;;;;5.40;2.55;;;;;;;;;;5054379;28;20045;-63
2021/08/28 13:00:40;;;;;;;5.18;2.97;;;;;;;;;;5057014;28;20461;-63
2021/08/28 13:03:22;;;;;;;6.78;3.00;;;;;;;;;;5057043;28;20049;-63
2021/08/28 13:05:48;;;;;;;4.25;2.75;;;;;;;;;;5057407;28;20103;-63
2021/08/28 13:08:15;;;;;;;4.07;2.97;;;;;;;;;;5057396;28;20045;-63
2021/08/28 13:10:41;;;;;;;3.88;2.83;;;;;;;;;;5054552;28;20123;-62
2021/08/28 13:13:09;;;;;;;3.65;2.70;;;;;;;;;;5069192;28;20522;-62
2021/08/28 13:15:40;;;;;;;4.80;3.20;;;;;;;;;;5056880;28;20060;-63
2021/08/28 13:18:10;;;;;;;5.00;3.95;;;;;;;;;;5056990;28;20072;-63
2021/08/28 13:20:38;;;;;;;4.82;3.30;;;;;;;;;;5057057;28;20080;-63
2021/08/28 13:23:07;;;;;;;6.10;3.50;;;;;;;;;;5057377;28;20518;-63
2021/08/28 13:25:35;;;;;;;4.88;3.40;;;;;;;;;;5054635;28;20060;-62
2021/08/28 13:28:14;;;;;;;5.93;3.10;;;;;;;;;;5054704;28;20080;-63
2021/08/28 13:30:40;;;;;;;3.85;3.05;;;;;;;;;;5056829;28;20049;-63
2021/08/28 13:33:07;;;;;;;4.20;3.35;;;;;;;;;;5056754;28;20514;-63
2021/08/28 13:35:43;;;;;;;10.35;3.15;;;;;;;;;;5056971;28;20041;-63
2021/08/28 13:38:10;;;;;;;4.40;3.40;;;;;;;;;;5056937;28;20515;-63
2021/08/28 13:40:37;;;;;;;5.05;3.20;;;;;;;;;;5054660;28;20419;-64
2021/08/28 13:43:04;;;;;;;6.63;3.25;;;;;;;;;;5054530;28;20395;-63
2021/08/28 13:45:31;;;;;;;4.22;3.20;;;;;;;;;;5056633;28;20083;-63
2021/08/28 13:47:57;;;;;;;5.35;3.33;;;;;;;;;;5056787;28;20041;-63
2021/08/28 13:50:25;;;;;;;3.75;2.92;;;;;;;;;;5058489;28;20040;-63
2021/08/28 13:52:51;;;;;;;5.07;3.08;;;;;;;;;;5068528;28;20098;-63
2021/08/28 13:55:18;;;;;;;3.58;3.00;;;;;;;;;;5052441;28;20086;-63
2021/08/28 13:57:45;;;;;;;5.43;3.75;;;;;;;;;;5057619;28;20139;-63
2021/08/28 14:00:13;;;;;;;6.05;3.08;;;;;;;;;;5060601;28;20103;-63
2021/08/28 14:02:40;;;;;;;5.65;3.30;;;;;;;;;;5060592;28;20045;-63
2021/08/28 14:05:06;;;;;;;4.53;2.75;;;;;;;;;;5060646;28;20044;-64
2021/08/28 14:07:33;;;;;;;3.65;3.03;;;;;;;;;;5057809;28;20052;-63
2021/08/28 14:09:59;;;;;;;5.53;2.97;;;;;;;;;;5057817;28;20124;-63
2021/08/28 14:12:26;;;;;;;4.03;2.95;;;;;;;;;;5060651;28;20047;-63
2021/08/28 14:14:52;;;;;;;4.30;2.97;;;;;;;;;;5060249;28;20124;-63
2021/08/28 14:17:19;;;;;;;3.90;3.20;;;;;;;;;;5059773;28;20103;-63
2021/08/28 14:19:45;;;;;;;4.00;3.10;;;;;;;;;;5059279;28;20036;-63
2021/08/28 14:22:12;;;;;;;3.55;2.80;;;;;;;;;;5056489;28;20075;-63
2021/08/28 14:24:38;;;;;;;4.20;3.33;;;;;;;;;;5059821;28;20097;-63
2021/08/28 14:27:05;;;;;;;3.20;2.53;;;;;;;;;;5060011;28;20041;-63
2021/08/28 14:29:31;;;;;;;4.10;2.70;;;;;;;;;;5062593;28;20087;-63
2021/08/28 14:31:58;;;;;;;3.92;2.63;;;;;;;;;;5070545;28;20048;-63
2021/08/28 14:34:24;;;;;;;3.50;2.83;;;;;;;;;;5056171;28;20094;-63
2021/08/28 14:36:52;;;;;;;4.68;2.83;;;;;;;;;;5058837;28;20077;-63
2021/08/28 14:39:19;;;;;;;5.20;3.45;;;;;;;;;;5059309;28;20103;-62
2021/08/28 14:41:45;;;;;;;3.83;3.03;;;;;;;;;;5059896;28;20098;-63
2021/08/28 14:44:12;;;;;;;3.72;3.10;;;;;;;;;;5059532;28;20083;-63
2021/08/28 14:46:39;;;;;;;4.10;2.90;;;;;;;;;;5057904;28;20407;-63
2021/08/28 14:49:05;;;;;;;3.45;2.55;;;;;;;;;;5057305;28;20483;-63